createdAt,value
2023-10-06T00:00:25.233Z,51.2
2023-10-06T00:01:26.298Z,51.5
2023-10-06T00:02:27.362Z,52.1
2023-10-06T00:03:28.309Z,52.7
2023-10-06T00:04:29.533Z,53
2023-10-06T00:05:30.327Z,52.9
2023-10-06T00:06:31.239Z,53.6
2023-10-06T00:07:32.302Z,53.2
2023-10-06T00:08:33.263Z,53.8
2023-10-06T00:09:34.248Z,53.6
2023-10-06T00:10:35.270Z,53.4
2023-10-06T00:11:36.255Z,53.3
2023-10-06T00:12:37.307Z,53.3
2023-10-06T00:13:38.316Z,53.4
2023-10-06T00:14:39.450Z,53.2
2023-10-06T00:15:40.341Z,52.9
2023-10-06T00:16:41.641Z,52.9
2023-10-06T00:17:42.293Z,52.9
2023-10-06T00:18:43.272Z,52.4
2023-10-06T00:19:44.308Z,52.6
2023-10-06T00:20:45.280Z,52.4
2023-10-06T00:21:46.334Z,52.3
2023-10-06T00:22:47.311Z,52.1
2023-10-06T00:23:48.275Z,52
2023-10-06T00:24:49.264Z,51.8
2023-10-06T00:25:50.292Z,51.8
2023-10-06T00:26:51.235Z,51.9
2023-10-06T00:27:52.303Z,52.2
2023-10-06T00:28:53.316Z,52.7
2023-10-06T00:29:54.374Z,52.8
2023-10-06T00:30:55.265Z,52.6
2023-10-06T00:31:56.345Z,52.8
2023-10-06T00:32:57.324Z,52.8
2023-10-06T00:33:58.259Z,52.3
2023-10-06T00:34:59.340Z,51.9
2023-10-06T00:36:00.309Z,51.5
2023-10-06T00:37:01.261Z,51.2
2023-10-06T00:38:02.367Z,50.7
2023-10-06T00:39:04.546Z,50.3
2023-10-06T00:40:05.275Z,49.8
2023-10-06T00:41:06.400Z,49.9
2023-10-06T00:42:07.265Z,49.8
2023-10-06T00:43:08.272Z,49.7
2023-10-06T00:44:09.337Z,49.6
2023-10-06T00:45:10.409Z,49.3
2023-10-06T00:46:11.293Z,49
2023-10-06T00:47:12.470Z,48.9
2023-10-06T00:48:13.404Z,48.8
2023-10-06T00:49:14.326Z,48.5
2023-10-06T00:50:15.263Z,48.5
2023-10-06T00:51:18.177Z,48.8
2023-10-06T00:52:17.305Z,48.7
2023-10-06T00:53:18.313Z,48.6
2023-10-06T00:54:19.293Z,48.7
2023-10-06T00:55:20.346Z,48.4
2023-10-06T00:56:21.452Z,48.1
2023-10-06T00:57:22.295Z,48.2
2023-10-06T00:58:23.297Z,48.3
2023-10-06T00:59:24.294Z,47.8
2023-10-06T01:00:25.508Z,48.2
2023-10-06T01:01:26.360Z,48.2
2023-10-06T01:02:27.448Z,48.3
2023-10-06T01:03:28.361Z,48.2
2023-10-06T01:04:29.709Z,48.2
2023-10-06T01:05:31.319Z,48.3
2023-10-06T01:06:32.350Z,48.2
2023-10-06T01:07:33.282Z,48.4
2023-10-06T01:08:34.331Z,48.2
2023-10-06T01:09:35.533Z,48.4
2023-10-06T01:10:36.480Z,48.7
2023-10-06T01:11:37.356Z,48.6
2023-10-06T01:12:38.289Z,48.7
2023-10-06T01:13:39.314Z,48.6
2023-10-06T01:14:40.272Z,48.6
2023-10-06T01:15:41.449Z,48.7
2023-10-06T01:16:42.321Z,48.6
2023-10-06T01:17:43.349Z,48.7
2023-10-06T01:18:44.304Z,48.8
2023-10-06T01:19:45.339Z,48.9
2023-10-06T01:20:46.362Z,48.9
2023-10-06T01:21:47.347Z,49
2023-10-06T01:22:48.326Z,48.9
2023-10-06T01:23:49.408Z,49.2
2023-10-06T01:24:50.269Z,49.5
2023-10-06T01:25:51.391Z,49.3
2023-10-06T01:26:52.346Z,49
2023-10-06T01:27:53.264Z,48.9
2023-10-06T01:28:54.325Z,48.5
2023-10-06T01:29:55.288Z,48.2
2023-10-06T01:30:56.452Z,48
2023-10-06T01:31:57.346Z,47.9
2023-10-06T01:32:58.359Z,47.7
2023-10-06T01:35:35.566Z,48.1
2023-10-06T01:36:36.365Z,48
2023-10-06T01:37:37.309Z,47.2
2023-10-06T01:38:38.312Z,47.1
2023-10-06T01:39:39.346Z,47.4
2023-10-06T01:40:40.386Z,47.6
2023-10-06T01:41:41.329Z,47.7
2023-10-06T01:42:42.332Z,47.9
2023-10-06T01:43:43.382Z,47.9
2023-10-06T01:44:44.319Z,47.9
2023-10-06T01:45:45.608Z,47.9
2023-10-06T01:46:46.502Z,48.1
2023-10-06T01:47:47.331Z,48.1
2023-10-06T01:48:48.360Z,48.2
2023-10-06T01:49:49.536Z,48.3
2023-10-06T01:50:50.279Z,48.2
2023-10-06T01:52:02.866Z,48.4
2023-10-06T01:52:52.442Z,48.2
2023-10-06T01:53:53.308Z,47.9
2023-10-06T01:54:54.380Z,47.7
2023-10-06T01:55:55.410Z,47.6
2023-10-06T01:56:56.311Z,47.5
2023-10-06T01:57:57.335Z,47.4
2023-10-06T01:58:58.341Z,47.5
2023-10-06T01:59:59.305Z,47.4
2023-10-06T02:01:00.428Z,47.6
2023-10-06T02:02:01.568Z,47.3
2023-10-06T02:03:02.434Z,47.1
2023-10-06T02:04:03.330Z,47
2023-10-06T02:05:04.613Z,47
2023-10-06T02:06:05.321Z,47.1
2023-10-06T02:07:06.339Z,47.2
2023-10-06T02:08:07.334Z,47.5
2023-10-06T02:09:08.458Z,47.8
2023-10-06T02:10:09.332Z,47.8
2023-10-06T02:11:10.394Z,47.7
2023-10-06T02:12:11.421Z,47.9
2023-10-06T02:13:12.311Z,47.8
2023-10-06T02:14:13.317Z,48
2023-10-06T02:15:14.316Z,47.9
2023-10-06T02:16:15.339Z,47.8
2023-10-06T02:17:16.514Z,47.8
2023-10-06T02:18:17.385Z,47.7
2023-10-06T02:19:18.346Z,47.8
2023-10-06T02:20:19.712Z,47.9
2023-10-06T02:21:20.348Z,47.9
2023-10-06T02:22:21.364Z,48.2
2023-10-06T02:23:22.379Z,48.5
2023-10-06T02:24:23.342Z,48.7
2023-10-06T02:25:24.364Z,48.7
2023-10-06T02:26:25.311Z,48.9
2023-10-06T02:27:26.360Z,48.7
2023-10-06T02:28:27.364Z,48.7
2023-10-06T02:29:28.379Z,48.9
2023-10-06T02:30:29.380Z,49
2023-10-06T02:31:30.343Z,49
2023-10-06T02:32:31.535Z,49.1
2023-10-06T02:33:32.401Z,48.8
2023-10-06T02:34:33.365Z,49
2023-10-06T02:35:34.781Z,49.1
2023-10-06T02:36:36.348Z,49.1
2023-10-06T02:37:37.478Z,49.3
2023-10-06T02:38:38.338Z,49.3
2023-10-06T02:39:39.690Z,49.6
2023-10-06T02:40:40.375Z,50
2023-10-06T02:41:41.354Z,49.8
2023-10-06T02:42:42.365Z,49.6
2023-10-06T02:43:43.347Z,49.5
2023-10-06T02:44:44.357Z,49.5
2023-10-06T02:45:45.314Z,49.8
2023-10-06T02:46:46.455Z,50
2023-10-06T02:47:47.646Z,49.9
2023-10-06T02:48:48.357Z,49.8
2023-10-06T02:49:50.540Z,49.6
2023-10-06T02:50:51.424Z,49.7
2023-10-06T02:51:52.383Z,49.5
2023-10-06T02:52:53.547Z,49
2023-10-06T02:53:54.507Z,49
2023-10-06T02:54:55.356Z,48.9
2023-10-06T02:55:56.439Z,48.6
2023-10-06T02:56:57.394Z,48.6
2023-10-06T02:57:58.368Z,48.2
2023-10-06T02:58:59.425Z,48.6
2023-10-06T03:00:00.411Z,48.6
2023-10-06T03:01:01.429Z,48.4
2023-10-06T03:02:02.530Z,48.4
2023-10-06T03:03:03.625Z,48.5
2023-10-06T03:04:04.361Z,48.4
2023-10-06T03:05:05.395Z,48.7
2023-10-06T03:06:06.349Z,48.6
2023-10-06T03:07:07.360Z,48.6
2023-10-06T03:08:08.405Z,48.6
2023-10-06T03:09:09.513Z,48.7
2023-10-06T03:10:10.375Z,48.5
2023-10-06T03:11:11.434Z,48.7
2023-10-06T03:12:12.373Z,48.6
2023-10-06T03:13:13.375Z,48.6
2023-10-06T03:14:14.369Z,48.6
2023-10-06T03:15:15.347Z,48.2
2023-10-06T03:16:16.402Z,48.3
2023-10-06T03:17:17.368Z,48.1
2023-10-06T03:18:18.736Z,48.1
2023-10-06T03:19:20.444Z,48.2
2023-10-06T03:20:21.355Z,48.2
2023-10-06T03:21:22.401Z,47.8
2023-10-06T03:22:23.397Z,47.6
2023-10-06T03:23:24.371Z,47.9
2023-10-06T03:24:25.386Z,48
2023-10-06T03:25:26.365Z,47.9
2023-10-06T03:26:27.356Z,48.1
2023-10-06T03:27:28.414Z,48.7
2023-10-06T03:28:29.422Z,49
2023-10-06T03:29:30.387Z,49.5
2023-10-06T03:30:31.409Z,50.1
2023-10-06T03:31:32.386Z,50.6
2023-10-06T03:32:34.018Z,50.6
2023-10-06T03:33:34.578Z,50.5
2023-10-06T03:34:35.747Z,50.4
2023-10-06T03:35:36.417Z,50.2
2023-10-06T03:36:37.403Z,50.3
2023-10-06T03:37:38.421Z,50
2023-10-06T03:38:39.404Z,49.6
2023-10-06T03:39:40.394Z,49.3
2023-10-06T03:40:41.467Z,49.6
2023-10-06T03:41:42.398Z,49.8
2023-10-06T03:42:43.375Z,50.1
2023-10-06T03:43:44.425Z,50.6
2023-10-06T03:44:45.402Z,51.6
2023-10-06T03:45:46.424Z,52.1
2023-10-06T03:46:47.609Z,52.5
2023-10-06T03:47:48.385Z,52.7
2023-10-06T03:48:49.507Z,53.2
2023-10-06T03:49:50.429Z,53.5
2023-10-06T03:50:51.427Z,53.5
2023-10-06T03:51:52.431Z,53.5
2023-10-06T03:52:53.517Z,53.7
2023-10-06T03:53:54.545Z,53.6
2023-10-06T03:54:55.403Z,54
2023-10-06T03:55:56.556Z,53.8
2023-10-06T03:56:57.392Z,54.3
2023-10-06T03:57:58.477Z,54.5
2023-10-06T03:58:59.487Z,54.6
2023-10-06T04:00:00.439Z,54.6
2023-10-06T04:01:01.463Z,54.9
2023-10-06T04:02:02.621Z,55.2
2023-10-06T04:03:03.509Z,55.1
2023-10-06T04:04:04.661Z,55.1
2023-10-06T04:05:05.475Z,55.1
2023-10-06T04:06:06.410Z,54.6
2023-10-06T04:07:07.416Z,55
2023-10-06T04:08:08.434Z,55
2023-10-06T04:09:13.248Z,54.6
2023-10-06T04:10:14.383Z,54.5
2023-10-06T04:11:15.304Z,54.2
2023-10-06T04:12:16.342Z,53.6
2023-10-06T04:13:17.332Z,53.5
2023-10-06T04:14:18.336Z,53.6
2023-10-06T04:15:19.381Z,53.6
2023-10-06T04:16:20.346Z,53.3
2023-10-06T04:17:21.169Z,53.4
2023-10-06T04:18:22.284Z,53.1
2023-10-06T04:19:23.484Z,52.9
2023-10-06T04:20:24.265Z,52.6
2023-10-06T04:21:25.359Z,52.5
2023-10-06T04:22:26.299Z,52.8
2023-10-06T04:23:27.337Z,53.2
2023-10-06T04:24:28.341Z,53.3
2023-10-06T04:25:29.285Z,52.8
2023-10-06T04:26:30.372Z,53
2023-10-06T04:27:31.392Z,53.4
2023-10-06T04:28:43.922Z,53.1
2023-10-06T04:29:48.676Z,53.1
2023-10-06T04:30:57.615Z,53.2
2023-10-06T04:32:09.932Z,53.3
2023-10-06T04:33:22.470Z,53.6
2023-10-06T04:34:43.979Z,54.2
2023-10-06T04:36:00.222Z,54.6
2023-10-06T04:37:24.396Z,54.6
2023-10-06T04:38:33.406Z,54.6
2023-10-06T04:39:54.496Z,54.7
2023-10-06T04:41:20.446Z,55
2023-10-06T04:42:44.539Z,55.4
2023-10-06T04:44:09.642Z,55.6
2023-10-06T04:45:22.815Z,55.6
2023-10-06T04:46:47.336Z,55.8
2023-10-06T04:48:11.305Z,55.7
2023-10-06T04:49:35.608Z,55.8
2023-10-06T04:50:59.723Z,55.5
2023-10-06T04:52:24.075Z,55.7
2023-10-06T04:53:48.948Z,55.9
2023-10-06T04:55:12.970Z,56.1
2023-10-06T04:56:37.977Z,56.3
2023-10-06T04:58:02.113Z,56.1
2023-10-06T04:59:26.295Z,56.3
2023-10-06T05:00:50.240Z,56.3
2023-10-06T05:02:14.455Z,55.9
2023-10-06T05:03:39.489Z,55.8
2023-10-06T05:04:45.904Z,55.4
2023-10-06T05:06:12.843Z,54.9
2023-10-06T05:07:38.301Z,54.5
2023-10-06T05:08:51.862Z,53.8
2023-10-06T05:10:08.951Z,53.4
2023-10-06T05:11:34.714Z,53.2
2023-10-06T05:13:00.717Z,52.4
2023-10-06T05:14:25.867Z,52.1
2023-10-06T05:15:50.880Z,51.8
2023-10-06T05:17:15.032Z,51.4
2023-10-06T05:18:40.189Z,51.2
2023-10-06T05:19:45.593Z,51
2023-10-06T05:21:10.309Z,50.7
2023-10-06T05:22:35.774Z,50.3
2023-10-06T05:24:06.642Z,49.4
2023-10-06T05:25:13.063Z,49.6
2023-10-06T05:26:40.440Z,49.2
2023-10-06T05:28:04.384Z,49.2
2023-10-06T05:29:28.584Z,48.9
2023-10-06T05:30:54.150Z,48.7
2023-10-06T05:32:19.849Z,48.7
2023-10-06T05:33:44.144Z,48.6
2023-10-06T05:35:09.673Z,48.3
2023-10-06T05:36:38.933Z,48.1
2023-10-06T05:38:03.236Z,48
2023-10-06T05:39:27.165Z,47.9
2023-10-06T05:40:51.323Z,47.6
2023-10-06T05:41:56.323Z,48
2023-10-06T05:43:17.557Z,48.3
2023-10-06T05:44:22.312Z,48.6
2023-10-06T05:45:46.476Z,48.9
2023-10-06T05:47:10.844Z,48.7
2023-10-06T05:48:35.884Z,48.6
2023-10-06T05:49:59.710Z,48.5
2023-10-06T05:51:24.000Z,48.2
2023-10-06T05:52:41.071Z,48
2023-10-06T05:54:06.786Z,48.4
2023-10-06T05:55:18.937Z,48.3
2023-10-06T05:56:47.273Z,47.8
2023-10-06T05:58:13.525Z,47.5
2023-10-06T05:59:23.561Z,47.3
2023-10-06T06:00:49.769Z,46.8
2023-10-06T06:01:59.919Z,46.5
2023-10-06T06:03:25.733Z,46.5
2023-10-06T06:04:46.811Z,46.1
2023-10-06T06:05:56.876Z,45.8
2023-10-06T06:07:03.759Z,45.1
2023-10-06T06:08:28.563Z,44.3
2023-10-06T06:09:53.251Z,44.3
2023-10-06T06:11:17.516Z,44.1
2023-10-06T06:12:41.155Z,43.9
2023-10-06T06:13:59.275Z,44
2023-10-06T06:15:19.264Z,43.7
2023-10-06T06:16:48.423Z,43.8
2023-10-06T06:18:05.084Z,43.6
2023-10-06T06:19:29.653Z,43.7
2023-10-06T06:20:46.981Z,43.7
2023-10-06T06:22:13.123Z,43.2
2023-10-06T06:23:38.032Z,43
2023-10-06T06:25:02.625Z,42.8
2023-10-06T06:26:27.470Z,42.7
2023-10-06T06:27:54.333Z,42.6
2023-10-06T06:29:18.693Z,42
2023-10-06T06:30:43.187Z,42.4
2023-10-06T06:32:08.493Z,42.7
2023-10-06T06:33:34.359Z,42.2
2023-10-06T06:34:39.431Z,41.7
2023-10-06T06:36:06.287Z,42
2023-10-06T06:37:33.464Z,42.4
2023-10-06T06:38:59.351Z,42.7
2023-10-06T06:40:23.376Z,42.6
2023-10-06T06:41:47.413Z,42.2
2023-10-06T06:43:13.717Z,42.4
2023-10-06T06:44:39.268Z,42.5
2023-10-06T06:46:03.723Z,42.2
2023-10-06T06:47:27.768Z,41.4
2023-10-06T06:48:33.675Z,42.5
2023-10-06T06:49:53.707Z,43.1
2023-10-06T06:51:19.128Z,43.5
2023-10-06T06:52:43.372Z,43.8
2023-10-06T06:54:09.072Z,43.7
2023-10-06T06:55:37.178Z,43.7
2023-10-06T06:57:01.535Z,43.2
2023-10-06T06:58:26.875Z,43.3
2023-10-06T06:59:51.002Z,43.7
2023-10-06T07:01:15.040Z,43.3
2023-10-06T07:02:40.018Z,43.4
2023-10-06T07:04:04.357Z,43.8
2023-10-06T07:05:28.151Z,43.1
2023-10-06T07:06:54.090Z,43.4
2023-10-06T07:08:18.622Z,43.8
2023-10-06T07:09:43.603Z,43.6
2023-10-06T07:11:08.040Z,42.7
2023-10-06T07:12:34.160Z,42.7
2023-10-06T07:13:58.972Z,43.3
2023-10-06T07:15:23.208Z,43.9
2023-10-06T07:16:47.321Z,44.5
2023-10-06T07:18:11.515Z,45
2023-10-06T07:19:35.509Z,45.5
2023-10-06T07:20:59.362Z,46.1
2023-10-06T07:22:25.627Z,46.2
2023-10-06T07:23:30.429Z,46.3
2023-10-06T07:24:58.086Z,46.1
2023-10-06T07:26:26.414Z,46.1
2023-10-06T07:27:50.904Z,46.3
2023-10-06T07:29:15.766Z,46.2
2023-10-06T07:30:40.328Z,45.9
2023-10-06T07:32:05.057Z,45.2
2023-10-06T07:33:13.585Z,44.4
2023-10-06T07:34:39.933Z,44.8
2023-10-06T07:35:53.157Z,45.3
2023-10-06T07:37:19.726Z,45.3
2023-10-06T07:38:43.705Z,45.5
2023-10-06T07:40:08.738Z,45.4
2023-10-06T07:41:33.045Z,45.8
2023-10-06T07:42:57.164Z,46.3
2023-10-06T07:44:17.295Z,46.8
2023-10-06T07:45:24.794Z,46.9
2023-10-06T07:46:48.355Z,47.1
2023-10-06T07:48:15.543Z,46.9
2023-10-06T07:49:40.435Z,46.5
2023-10-06T07:51:04.582Z,46.8
2023-10-06T07:52:29.572Z,47
2023-10-06T07:53:59.607Z,46.9
2023-10-06T07:55:23.807Z,46.1
2023-10-06T07:56:28.831Z,46.2
2023-10-06T07:57:54.241Z,46.9
2023-10-06T07:59:12.065Z,47.3
2023-10-06T08:00:18.554Z,48
2023-10-06T08:01:44.071Z,47.5
2023-10-06T08:03:08.579Z,46.8
2023-10-06T08:04:32.462Z,46.8
2023-10-06T08:05:41.223Z,47.1
2023-10-06T08:07:05.268Z,47.3
2023-10-06T08:08:29.360Z,47.5
2023-10-06T08:09:54.774Z,47.1
2023-10-06T08:11:22.295Z,47.4
2023-10-06T08:12:43.634Z,47.1
2023-10-06T08:14:11.065Z,46.3
2023-10-06T08:15:34.822Z,46.5
2023-10-06T08:16:59.055Z,47.7
2023-10-06T08:18:23.506Z,47.6
2023-10-06T08:19:29.783Z,47.7
2023-10-06T08:20:53.894Z,47.7
2023-10-06T08:22:19.157Z,47.8
2023-10-06T08:23:43.356Z,47.2
2023-10-06T08:25:07.317Z,47.4
2023-10-06T08:26:32.492Z,47.7
2023-10-06T08:27:59.610Z,47.5
2023-10-06T08:29:22.915Z,46.8
2023-10-06T08:30:33.406Z,45.8
2023-10-06T08:31:57.538Z,46.4
2023-10-06T08:33:21.697Z,46.2
2023-10-06T08:34:47.702Z,45.6
2023-10-06T08:36:13.319Z,45.5
2023-10-06T08:37:38.735Z,44.9
2023-10-06T08:38:55.373Z,44.6
2023-10-06T08:40:19.614Z,44.7
2023-10-06T08:41:47.896Z,44
2023-10-06T08:43:15.672Z,44
2023-10-06T08:44:40.622Z,42.9
2023-10-06T08:45:53.658Z,42
2023-10-06T08:47:27.782Z,43.1
2023-10-06T08:48:43.094Z,43.7
2023-10-06T08:49:56.113Z,44.1
2023-10-06T08:51:20.285Z,44.1
2023-10-06T08:52:47.065Z,44.2
2023-10-06T08:54:13.095Z,44
2023-10-06T08:55:41.270Z,44.5
2023-10-06T08:56:54.224Z,43.5
2023-10-06T08:58:18.073Z,42.4
2023-10-06T08:59:43.091Z,42.5
2023-10-06T09:01:08.485Z,42.6
2023-10-06T09:02:32.563Z,42.9
2023-10-06T09:03:56.664Z,43.1
2023-10-06T09:05:21.350Z,42.4
2023-10-06T09:06:46.202Z,43.4
2023-10-06T09:08:11.407Z,43.6
2023-10-06T09:09:36.083Z,43.4
2023-10-06T09:11:00.174Z,43.4
2023-10-06T09:12:25.449Z,42.7
2023-10-06T09:13:50.463Z,42.9
2023-10-06T09:15:14.550Z,43.3
2023-10-06T09:16:34.883Z,43.2
2023-10-06T09:17:39.801Z,43.2
2023-10-06T09:19:03.801Z,43.5
2023-10-06T09:20:30.838Z,43.9
2023-10-06T09:21:53.933Z,42.2
2023-10-06T09:23:06.560Z,42
2023-10-06T09:24:15.248Z,42
2023-10-06T09:25:44.424Z,41.6
2023-10-06T09:27:06.545Z,40.1
2023-10-06T09:28:35.050Z,39.8
2023-10-06T09:30:17.609Z,39.3
2023-10-06T09:31:52.613Z,40.1
2023-10-06T09:33:38.626Z,40
2023-10-06T09:35:02.884Z,41.1
2023-10-06T09:36:36.653Z,41.5
2023-10-06T09:37:34.231Z,41.6
2023-10-06T09:38:55.846Z,41
2023-10-06T09:40:20.022Z,40.5
2023-10-06T09:41:46.239Z,40.7
2023-10-06T09:43:04.507Z,40.9
2023-10-06T09:44:30.620Z,40.8
2023-10-06T09:45:56.150Z,40.8
2023-10-06T09:47:24.106Z,40.6
2023-10-06T09:48:47.821Z,40.4
2023-10-06T09:50:11.937Z,40.6
2023-10-06T09:51:21.058Z,40.3
2023-10-06T09:52:38.942Z,40.5
2023-10-06T09:54:03.096Z,41.7
2023-10-06T09:55:20.235Z,41.6
2023-10-06T09:56:46.360Z,41.7
2023-10-06T09:58:11.294Z,41.8
2023-10-06T09:59:36.848Z,41.3
2023-10-06T10:01:01.051Z,41.2
2023-10-06T10:02:25.887Z,41.2
2023-10-06T10:03:33.672Z,40.9
2023-10-06T10:04:58.853Z,41
2023-10-06T10:06:26.235Z,41.2
2023-10-06T10:07:50.640Z,39.8
2023-10-06T10:09:13.607Z,37.7
2023-10-06T10:10:18.290Z,37.5
2023-10-06T10:11:42.800Z,37.7
2023-10-06T10:13:07.055Z,36.7
2023-10-06T10:16:00.965Z,36.6
2023-10-06T10:17:28.247Z,36.9
2023-10-06T10:18:43.602Z,37.2
2023-10-06T10:20:07.576Z,37.8
2023-10-06T10:21:31.606Z,37.2
2023-10-06T10:22:57.488Z,36.9
2023-10-06T10:25:39.077Z,36.9
2023-10-06T10:27:01.364Z,37.6
2023-10-06T10:28:16.054Z,36.8
2023-10-06T10:29:41.502Z,35.9
2023-10-06T10:31:06.408Z,35.8
2023-10-06T10:32:31.461Z,35.7
2023-10-06T10:34:00.909Z,36.2
2023-10-06T10:35:18.612Z,36.4
2023-10-06T10:36:31.462Z,36.3
2023-10-06T10:37:55.580Z,36.2
2023-10-06T10:39:20.694Z,36.2
2023-10-06T10:40:44.921Z,35.8
2023-10-06T10:41:58.171Z,35.9
2023-10-06T10:43:26.046Z,36.2
2023-10-06T10:44:31.598Z,37
2023-10-06T10:45:55.320Z,37.1
2023-10-06T10:47:19.383Z,36.9
2023-10-06T10:48:46.030Z,36.9
2023-10-06T10:50:11.212Z,37.3
2023-10-06T10:51:35.791Z,36.8
2023-10-06T10:52:48.874Z,36.5
2023-10-06T10:54:16.493Z,37.2
2023-10-06T10:55:31.843Z,37.6
2023-10-06T10:56:45.584Z,38
2023-10-06T10:58:12.112Z,37.8
2023-10-06T10:59:36.885Z,37.8
2023-10-06T11:01:02.464Z,38.4
2023-10-06T11:02:27.308Z,37.5
2023-10-06T11:03:52.037Z,35.6
2023-10-06T11:05:16.386Z,35.3
2023-10-06T11:06:41.639Z,34.5
2023-10-06T11:08:06.410Z,34
2023-10-06T11:09:30.755Z,34.2
2023-10-06T11:10:54.557Z,34.3
2023-10-06T11:13:54.199Z,33.1
2023-10-06T11:15:07.892Z,33.2
2023-10-06T11:16:32.179Z,33.2
2023-10-06T11:17:57.318Z,32.5
2023-10-06T11:19:21.128Z,32.6
2023-10-06T11:20:45.525Z,32.9
2023-10-06T11:22:10.029Z,33
2023-10-06T11:23:34.860Z,33.7
2023-10-06T11:25:00.009Z,34.1
2023-10-06T11:26:30.767Z,34
2023-10-06T11:27:57.904Z,33.4
2023-10-06T11:29:22.987Z,32.2
2023-10-06T11:30:48.294Z,31.7
2023-10-06T11:32:13.126Z,31.7
2023-10-06T11:33:18.653Z,31.8
2023-10-06T11:34:46.915Z,31.7
2023-10-06T11:36:11.338Z,32
2023-10-06T11:37:35.482Z,32.8
2023-10-06T11:38:59.463Z,33.2
2023-10-06T11:40:24.972Z,32.7
2023-10-06T11:41:35.378Z,33
2023-10-06T11:43:01.556Z,33.4
2023-10-06T11:44:26.502Z,32.5
2023-10-06T11:45:44.070Z,32.6
2023-10-06T11:47:12.257Z,33.3
2023-10-06T11:48:40.194Z,33.6
2023-10-06T11:50:04.391Z,33.2
2023-10-06T11:51:28.434Z,33.6
2023-10-06T11:52:52.755Z,33.9
2023-10-06T11:54:18.590Z,34.2
2023-10-06T11:55:43.719Z,33.9
2023-10-06T11:57:07.748Z,33.1
2023-10-06T11:58:32.294Z,32.6
2023-10-06T11:59:59.999Z,32.3
2023-10-06T12:01:09.793Z,31.9
2023-10-06T12:02:36.895Z,30.9
2023-10-06T12:03:54.164Z,30.7
2023-10-06T12:05:18.324Z,30.7
2023-10-06T12:06:45.705Z,31.3
2023-10-06T12:08:10.851Z,31.5
2023-10-06T12:09:36.682Z,32
2023-10-06T12:10:41.831Z,31.5
2023-10-06T12:12:06.779Z,30.6
2023-10-06T12:13:29.645Z,30.7
2023-10-06T12:14:55.064Z,31.6
2023-10-06T12:16:19.051Z,31.6
2023-10-06T12:17:36.055Z,31.9
2023-10-06T12:19:00.491Z,32
2023-10-06T12:20:27.586Z,31.5
2023-10-06T12:21:48.031Z,31.9
2023-10-06T12:23:12.228Z,31.3
2023-10-06T12:24:37.487Z,31.2
2023-10-06T12:25:52.738Z,30.6
2023-10-06T12:27:17.596Z,30.7
2023-10-06T12:28:42.078Z,31.1
2023-10-06T12:30:05.988Z,30.6
2023-10-06T12:31:30.117Z,30.8
2023-10-06T12:32:47.223Z,31.7
2023-10-06T12:34:13.844Z,31.7
2023-10-06T12:35:30.946Z,31.8
2023-10-06T12:36:50.555Z,32
2023-10-06T12:38:13.599Z,32.5
2023-10-06T12:39:38.630Z,32.3
2023-10-06T12:41:04.803Z,31.4
2023-10-06T12:42:28.992Z,31.5
2023-10-06T12:43:53.068Z,30.9
2023-10-06T12:45:07.364Z,31.1
2023-10-06T12:46:31.611Z,31.5
2023-10-06T12:47:43.546Z,31.4
2023-10-06T12:49:05.330Z,31.7
2023-10-06T12:50:30.527Z,31.9
2023-10-06T12:51:36.199Z,31.6
2023-10-06T12:53:00.630Z,31.6
2023-10-06T12:54:27.061Z,30.7
2023-10-06T12:55:52.582Z,31.3
2023-10-06T12:57:16.711Z,31.5
2023-10-06T12:58:41.199Z,31.3
2023-10-06T13:00:07.004Z,31.3
2023-10-06T13:01:31.719Z,31.2
2023-10-06T13:02:56.436Z,31.3
2023-10-06T13:04:22.900Z,30.6
2023-10-06T13:05:32.886Z,30.6
2023-10-06T13:06:58.781Z,30.1
2023-10-06T13:08:04.585Z,30.3
2023-10-06T13:09:29.242Z,30.5
2023-10-06T13:10:56.467Z,31.1
2023-10-06T13:12:22.525Z,30.4
2023-10-06T13:13:27.859Z,31.2
2023-10-06T13:14:54.234Z,31
2023-10-06T13:16:19.577Z,30.7
2023-10-06T13:17:41.181Z,30.8
2023-10-06T13:18:55.002Z,31.1
2023-10-06T13:20:23.505Z,31.4
2023-10-06T13:21:51.326Z,31.5
2023-10-06T13:23:16.691Z,30.4
2023-10-06T13:24:31.030Z,30.4
2023-10-06T13:25:45.478Z,30.5
2023-10-06T13:26:51.364Z,30.6
2023-10-06T13:28:15.553Z,30.6
2023-10-06T13:29:24.757Z,30.9
2023-10-06T13:30:52.342Z,31.4
2023-10-06T13:31:57.612Z,31.7
2023-10-06T13:33:23.695Z,31.9
2023-10-06T13:34:40.914Z,31.8
2023-10-06T13:36:07.298Z,31.3
2023-10-06T13:37:28.924Z,31.3
2023-10-06T13:38:53.138Z,31.5
2023-10-06T13:40:18.076Z,31.7
2023-10-06T13:41:42.738Z,31.8
2023-10-06T13:43:07.315Z,31.3
2023-10-06T13:44:31.493Z,31.2
2023-10-06T13:45:57.594Z,31.3
2023-10-06T13:47:21.659Z,31.2
2023-10-06T13:48:42.123Z,31.2
2023-10-06T13:49:58.382Z,30.6
2023-10-06T13:51:22.429Z,30.1
2023-10-06T13:52:31.899Z,30.4
2023-10-06T13:53:58.326Z,30.9
2023-10-06T13:55:11.743Z,31.2
2023-10-06T13:56:36.210Z,31.5
2023-10-06T13:58:01.138Z,31.4
2023-10-06T13:59:25.172Z,31.4
2023-10-06T14:00:49.334Z,31
2023-10-06T14:02:14.316Z,30.8
2023-10-06T14:03:38.536Z,30.5
2023-10-06T14:05:02.804Z,30.4
2023-10-06T14:06:20.209Z,30.5
2023-10-06T14:07:48.850Z,30.8
2023-10-06T14:09:07.198Z,31.1
2023-10-06T14:10:21.513Z,31.1
2023-10-06T14:11:49.308Z,31.7
2023-10-06T14:13:16.383Z,31.6
2023-10-06T14:14:42.126Z,32
2023-10-06T14:15:49.230Z,32.6
2023-10-06T14:17:16.555Z,32.5
2023-10-06T14:18:33.921Z,32.6
2023-10-06T14:19:58.586Z,32.9
2023-10-06T14:21:21.308Z,32.6
2023-10-06T14:22:31.714Z,32.4
2023-10-06T14:23:56.217Z,32.8
2023-10-06T14:25:20.296Z,33.1
2023-10-06T14:26:33.390Z,33.1
2023-10-06T14:27:57.836Z,33.1
2023-10-06T14:29:22.012Z,32.7
2023-10-06T14:30:46.130Z,33
2023-10-06T14:32:12.095Z,32.9
2023-10-06T14:33:36.320Z,32.9
2023-10-06T14:35:00.430Z,32.8
2023-10-06T14:36:17.678Z,32.8
2023-10-06T14:37:43.905Z,32.6
2023-10-06T14:39:08.073Z,32.6
2023-10-06T14:40:37.250Z,32.6
2023-10-06T14:42:01.218Z,32.8
2023-10-06T14:43:25.376Z,32.7
2023-10-06T14:44:50.908Z,32.8
2023-10-06T14:46:12.445Z,32.9
2023-10-06T14:47:38.097Z,33.2
2023-10-06T14:49:04.888Z,33.6
2023-10-06T14:50:14.994Z,33.9
2023-10-06T14:51:38.675Z,34
2023-10-06T14:53:03.606Z,34.2
2023-10-06T14:54:25.227Z,34.4
2023-10-06T14:55:51.269Z,34.6
2023-10-06T14:56:56.435Z,34.7
2023-10-06T14:58:21.633Z,34.8
2023-10-06T14:59:46.425Z,35
2023-10-06T15:01:07.993Z,34.8
2023-10-06T15:02:32.822Z,34.7
2023-10-06T15:04:02.358Z,34.7
2023-10-06T15:05:08.972Z,34.9
2023-10-06T15:06:35.607Z,35
2023-10-06T15:07:59.806Z,34.9
2023-10-06T15:09:24.101Z,34.8
2023-10-06T15:10:35.940Z,34.8
2023-10-06T15:12:01.209Z,34.8
2023-10-06T15:13:25.739Z,34.8
2023-10-06T15:14:49.766Z,34.9
2023-10-06T15:16:13.889Z,34.8
2023-10-06T15:17:34.519Z,33.9
2023-10-06T15:19:00.486Z,34
2023-10-06T15:20:27.358Z,34.4
2023-10-06T15:21:36.586Z,34.4
2023-10-06T15:23:02.469Z,34.7
2023-10-06T15:24:27.315Z,34.8
2023-10-06T15:25:51.334Z,34.6
2023-10-06T15:27:15.668Z,34.4
2023-10-06T15:28:38.427Z,34.2
2023-10-06T15:29:53.073Z,34.3
2023-10-06T15:31:17.410Z,34.4
2023-10-06T15:32:37.551Z,34.8
2023-10-06T15:34:01.599Z,34.8
2023-10-06T15:35:25.783Z,34.7
2023-10-06T15:36:50.877Z,34.7
2023-10-06T15:38:15.185Z,34.8
2023-10-06T15:39:20.472Z,35
2023-10-06T15:40:45.092Z,35
2023-10-06T15:42:10.102Z,34.9
2023-10-06T15:43:34.211Z,35
2023-10-06T15:44:59.155Z,35
2023-10-06T15:46:25.734Z,35
2023-10-06T15:47:57.445Z,35
2023-10-06T15:49:21.658Z,35
2023-10-06T15:50:34.307Z,35.2
2023-10-06T15:51:42.935Z,35.1
2023-10-06T15:53:07.075Z,35.1
2023-10-06T15:54:32.987Z,35.1
2023-10-06T15:55:58.076Z,35.2
2023-10-06T15:57:22.170Z,35.2
2023-10-06T15:58:44.409Z,35.1
2023-10-06T16:00:10.601Z,35.1
2023-10-06T16:01:36.714Z,35.1
2023-10-06T16:03:02.029Z,35.1
2023-10-06T16:04:23.147Z,35.1
2023-10-06T16:05:48.147Z,35.1
2023-10-06T16:07:09.929Z,35.2
2023-10-06T16:08:27.757Z,35.4
2023-10-06T16:09:54.040Z,35.5
2023-10-06T16:11:19.098Z,35.7
2023-10-06T16:12:45.595Z,35.7
2023-10-06T16:14:10.556Z,35.8
2023-10-06T16:15:34.392Z,35.9
2023-10-06T16:16:58.459Z,35.9
2023-10-06T16:18:04.176Z,36.1
2023-10-06T16:19:28.373Z,36.1
2023-10-06T16:20:52.546Z,36.4
2023-10-06T16:22:14.753Z,36.6
2023-10-06T16:23:31.516Z,36.8
2023-10-06T16:24:56.427Z,36.7
2023-10-06T16:26:21.648Z,36.4
2023-10-06T16:27:47.025Z,36.4
2023-10-06T16:29:12.148Z,36.5
2023-10-06T16:30:36.250Z,36.6
2023-10-06T16:32:00.446Z,36.7
2023-10-06T16:33:25.214Z,36.6
2023-10-06T16:34:50.348Z,36.6
2023-10-06T16:36:14.526Z,36.5
2023-10-06T16:37:38.523Z,36.7
2023-10-06T16:39:03.619Z,36.9
2023-10-06T16:40:27.779Z,37.2
2023-10-06T16:41:52.713Z,37.5
2023-10-06T16:43:18.842Z,37.5
2023-10-06T16:44:42.970Z,37.4
2023-10-06T16:46:08.328Z,37.3
2023-10-06T16:47:32.235Z,37.3
2023-10-06T16:48:58.266Z,37.2
2023-10-06T16:50:11.494Z,37.2
2023-10-06T16:51:20.822Z,37.2
2023-10-06T16:52:47.670Z,37.1
2023-10-06T16:54:11.822Z,37
2023-10-06T16:55:35.873Z,36.9